sensor_id;sensor_type;location;lat;lon;timestamp;pressure;altitude;pressure_sealevel;temperature;humidity
62402;BME280;48440;51.224;22.506;2023-08-17T00:00:06;99562.84;;;25.61;66.70
62402;BME280;48440;51.224;22.506;2023-08-17T00:02:35;99568.09;;;25.63;67.38
62402;BME280;48440;51.224;22.506;2023-08-17T00:05:00;99562.03;;;25.61;66.28
62402;BME280;48440;51.224;22.506;2023-08-17T00:07:26;99573.03;;;25.57;66.95
62402;BME280;48440;51.224;22.506;2023-08-17T00:09:51;99570.59;;;25.56;67.13
62402;BME280;48440;51.224;22.506;2023-08-17T00:12:17;99561.09;;;25.57;67.40
62402;BME280;48440;51.224;22.506;2023-08-17T00:14:42;99576.97;;;25.56;67.40
62402;BME280;48440;51.224;22.506;2023-08-17T00:17:08;99580.78;;;25.52;66.87
62402;BME280;48440;51.224;22.506;2023-08-17T00:19:33;99588.91;;;25.45;66.80
62402;BME280;48440;51.224;22.506;2023-08-17T00:21:59;99593.19;;;25.42;66.73
62402;BME280;48440;51.224;22.506;2023-08-17T00:24:24;99603.09;;;25.31;66.98
62402;BME280;48440;51.224;22.506;2023-08-17T00:26:50;99600.44;;;25.22;66.71
62402;BME280;48440;51.224;22.506;2023-08-17T00:29:15;99595.34;;;25.24;66.32
62402;BME280;48440;51.224;22.506;2023-08-17T00:31:41;99597.66;;;25.22;66.14
62402;BME280;48440;51.224;22.506;2023-08-17T00:34:06;99596.41;;;25.20;66.01
62402;BME280;48440;51.224;22.506;2023-08-17T00:36:32;99599.19;;;25.20;67.00
62402;BME280;48440;51.224;22.506;2023-08-17T00:38:57;99593.72;;;25.23;66.63
62402;BME280;48440;51.224;22.506;2023-08-17T00:41:23;99590.13;;;25.23;66.27
62402;BME280;48440;51.224;22.506;2023-08-17T00:43:48;99607.72;;;25.15;66.17
62402;BME280;48440;51.224;22.506;2023-08-17T00:46:14;99604.59;;;25.16;66.39
62402;BME280;48440;51.224;22.506;2023-08-17T00:48:40;99605.16;;;25.10;65.20
62402;BME280;48440;51.224;22.506;2023-08-17T00:51:06;99599.81;;;25.05;65.06
62402;BME280;48440;51.224;22.506;2023-08-17T00:53:32;99616.94;;;25.07;65.01
62402;BME280;48440;51.224;22.506;2023-08-17T00:55:58;99606.66;;;25.07;64.64
62402;BME280;48440;51.224;22.506;2023-08-17T00:58:26;99598.66;;;25.06;64.70
62402;BME280;48440;51.224;22.506;2023-08-17T01:00:53;99607.34;;;25.04;65.36
62402;BME280;48440;51.224;22.506;2023-08-17T01:03:20;99607.81;;;25.06;65.39
62402;BME280;48440;51.224;22.506;2023-08-17T01:05:46;99603.88;;;25.07;65.88
62402;BME280;48440;51.224;22.506;2023-08-17T01:08:11;99598.34;;;25.07;65.94
62402;BME280;48440;51.224;22.506;2023-08-17T01:10:44;99611.28;;;25.03;66.31
62402;BME280;48440;51.224;22.506;2023-08-17T01:13:18;99608.84;;;25.01;66.18
62402;BME280;48440;51.224;22.506;2023-08-17T01:15:50;99611.28;;;25.03;66.02
62402;BME280;48440;51.224;22.506;2023-08-17T01:18:29;99609.66;;;25.02;66.02
62402;BME280;48440;51.224;22.506;2023-08-17T01:20:58;99620.28;;;25.00;66.18
62402;BME280;48440;51.224;22.506;2023-08-17T01:23:24;99618.66;;;24.99;65.93
62402;BME280;48440;51.224;22.506;2023-08-17T01:25:50;99623.25;;;24.95;65.89
62402;BME280;48440;51.224;22.506;2023-08-17T01:28:15;99629.16;;;24.93;66.39
62402;BME280;48440;51.224;22.506;2023-08-17T01:30:57;99628.56;;;24.88;66.50
62402;BME280;48440;51.224;22.506;2023-08-17T01:33:34;99625.31;;;24.86;67.00
62402;BME280;48440;51.224;22.506;2023-08-17T01:36:07;99629.22;;;24.85;67.66
62402;BME280;48440;51.224;22.506;2023-08-17T01:38:36;99624.38;;;24.82;67.02
62402;BME280;48440;51.224;22.506;2023-08-17T01:41:04;99631.06;;;24.81;67.14
62402;BME280;48440;51.224;22.506;2023-08-17T01:43:30;99622.59;;;24.77;67.24
62402;BME280;48440;51.224;22.506;2023-08-17T01:45:56;99629.78;;;24.78;67.04
62402;BME280;48440;51.224;22.506;2023-08-17T01:48:21;99631.63;;;24.74;67.20
62402;BME280;48440;51.224;22.506;2023-08-17T01:50:47;99632.63;;;24.69;67.99
62402;BME280;48440;51.224;22.506;2023-08-17T01:53:12;99626.97;;;24.66;68.04
62402;BME280;48440;51.224;22.506;2023-08-17T01:55:37;99626.84;;;24.62;68.12
62402;BME280;48440;51.224;22.506;2023-08-17T01:58:03;99625.22;;;24.61;68.08
62402;BME280;48440;51.224;22.506;2023-08-17T02:00:29;99619.19;;;24.59;68.61
62402;BME280;48440;51.224;22.506;2023-08-17T02:02:54;99618.25;;;24.55;68.45
62402;BME280;48440;51.224;22.506;2023-08-17T02:05:20;99614.31;;;24.56;68.29
62402;BME280;48440;51.224;22.506;2023-08-17T02:07:45;99618.72;;;24.57;68.38
62402;BME280;48440;51.224;22.506;2023-08-17T02:10:10;99613.31;;;24.61;68.17
62402;BME280;48440;51.224;22.506;2023-08-17T02:12:36;99615.59;;;24.59;68.32
62402;BME280;48440;51.224;22.506;2023-08-17T02:15:01;99611.53;;;24.56;68.32
62402;BME280;48440;51.224;22.506;2023-08-17T02:17:27;99605.88;;;24.53;68.46
62402;BME280;48440;51.224;22.506;2023-08-17T02:19:52;99610.13;;;24.50;68.46
62402;BME280;48440;51.224;22.506;2023-08-17T02:22:18;99610.47;;;24.49;68.54
62402;BME280;48440;51.224;22.506;2023-08-17T02:24:43;99606.75;;;24.45;68.94
62402;BME280;48440;51.224;22.506;2023-08-17T02:27:09;99614.38;;;24.48;68.70
62402;BME280;48440;51.224;22.506;2023-08-17T02:29:34;99608.38;;;24.46;68.82
62402;BME280;48440;51.224;22.506;2023-08-17T02:32:00;99608.38;;;24.46;68.52
62402;BME280;48440;51.224;22.506;2023-08-17T02:34:25;99607.56;;;24.45;68.98
62402;BME280;48440;51.224;22.506;2023-08-17T02:36:51;99611.13;;;24.46;69.02
62402;BME280;48440;51.224;22.506;2023-08-17T02:39:16;99614.47;;;24.39;69.54
62402;BME280;48440;51.224;22.506;2023-08-17T02:41:41;99614.97;;;24.41;69.00
62402;BME280;48440;51.224;22.506;2023-08-17T02:44:07;99613.66;;;24.39;68.86
62402;BME280;48440;51.224;22.506;2023-08-17T02:46:32;99615.28;;;24.40;68.96
62402;BME280;48440;51.224;22.506;2023-08-17T02:48:58;99626.50;;;24.43;69.26
62402;BME280;48440;51.224;22.506;2023-08-17T02:51:23;99611.81;;;24.43;68.78
62402;BME280;48440;51.224;22.506;2023-08-17T02:53:49;99616.69;;;24.46;69.13
62402;BME280;48440;51.224;22.506;2023-08-17T02:56:14;99617.50;;;24.46;69.06
62402;BME280;48440;51.224;22.506;2023-08-17T02:58:40;99616.22;;;24.44;68.74
62402;BME280;48440;51.224;22.506;2023-08-17T03:01:06;99616.44;;;24.39;69.02
62402;BME280;48440;51.224;22.506;2023-08-17T03:03:32;99622.47;;;24.41;69.00
62402;BME280;48440;51.224;22.506;2023-08-17T03:05:57;99615.63;;;24.38;69.18
62402;BME280;48440;51.224;22.506;2023-08-17T03:08:23;99620.69;;;24.36;68.75
62402;BME280;48440;51.224;22.506;2023-08-17T03:10:48;99618.75;;;24.37;69.34
62402;BME280;48440;51.224;22.506;2023-08-17T03:13:14;99609.75;;;24.40;68.91
62402;BME280;48440;51.224;22.506;2023-08-17T03:15:39;99615.78;;;24.42;68.82
62402;BME280;48440;51.224;22.506;2023-08-17T03:18:05;99612.84;;;24.38;69.16
62402;BME280;48440;51.224;22.506;2023-08-17T03:20:31;99622.31;;;24.37;69.58
62402;BME280;48440;51.224;22.506;2023-08-17T03:22:56;99618.75;;;24.37;69.72
62402;BME280;48440;51.224;22.506;2023-08-17T03:25:22;99619.56;;;24.37;69.83
62402;BME280;48440;51.224;22.506;2023-08-17T03:27:47;99620.38;;;24.38;69.83
62402;BME280;48440;51.224;22.506;2023-08-17T03:30:13;99615.16;;;24.36;69.92
62402;BME280;48440;51.224;22.506;2023-08-17T03:32:38;99623.00;;;24.34;70.39
62402;BME280;48440;51.224;22.506;2023-08-17T03:35:04;99628.53;;;24.34;69.62
62402;BME280;48440;51.224;22.506;2023-08-17T03:37:30;99626.25;;;24.36;69.19
62402;BME280;48440;51.224;22.506;2023-08-17T03:39:55;99616.63;;;24.33;69.47
62402;BME280;48440;51.224;22.506;2023-08-17T03:42:21;99615.50;;;24.34;69.67
62402;BME280;48440;51.224;22.506;2023-08-17T03:44:46;99612.72;;;24.34;69.93
62402;BME280;48440;51.224;22.506;2023-08-17T03:47:13;99613.88;;;24.33;70.33
62402;BME280;48440;51.224;22.506;2023-08-17T03:49:39;99616.63;;;24.33;70.17
62402;BME280;48440;51.224;22.506;2023-08-17T03:52:05;99610.75;;;24.35;70.11
62402;BME280;48440;51.224;22.506;2023-08-17T03:54:31;99616.31;;;24.35;69.92
62402;BME280;48440;51.224;22.506;2023-08-17T03:56:56;99609.59;;;24.36;69.79
62402;BME280;48440;51.224;22.506;2023-08-17T03:59:22;99618.75;;;24.37;69.37
62402;BME280;48440;51.224;22.506;2023-08-17T04:01:48;99613.19;;;24.37;70.05
62402;BME280;48440;51.224;22.506;2023-08-17T04:04:15;99608.78;;;24.35;70.32
62402;BME280;48440;51.224;22.506;2023-08-17T04:06:40;99616.63;;;24.33;69.88
62402;BME280;48440;51.224;22.506;2023-08-17T04:09:06;99608.78;;;24.35;70.29
62402;BME280;48440;51.224;22.506;2023-08-17T04:11:35;99614.69;;;24.34;70.39
62402;BME280;48440;51.224;22.506;2023-08-17T04:14:01;99616.31;;;24.35;70.19
62402;BME280;48440;51.224;22.506;2023-08-17T04:16:27;99617.66;;;24.29;70.53
62402;BME280;48440;51.224;22.506;2023-08-17T04:18:52;99621.09;;;24.26;71.24
62402;BME280;48440;51.224;22.506;2023-08-17T04:21:18;99618.31;;;24.26;70.98
62402;BME280;48440;51.224;22.506;2023-08-17T04:23:43;99617.66;;;24.29;70.97
62402;BME280;48440;51.224;22.506;2023-08-17T04:26:09;99614.41;;;24.27;71.47
62402;BME280;48440;51.224;22.506;2023-08-17T04:28:34;99615.56;;;24.26;71.62
62402;BME280;48440;51.224;22.506;2023-08-17T04:30:59;99614.53;;;24.30;71.41
62402;BME280;48440;51.224;22.506;2023-08-17T04:33:25;99614.53;;;24.30;71.07
62402;BME280;48440;51.224;22.506;2023-08-17T04:35:51;99618.59;;;24.33;71.24
62402;BME280;48440;51.224;22.506;2023-08-17T04:38:16;99619.41;;;24.33;70.98
62402;BME280;48440;51.224;22.506;2023-08-17T04:40:42;99614.69;;;24.34;71.33
62402;BME280;48440;51.224;22.506;2023-08-17T04:43:07;99612.72;;;24.34;71.90
62402;BME280;48440;51.224;22.506;2023-08-17T04:45:33;99623.00;;;24.34;72.38
62402;BME280;48440;51.224;22.506;2023-08-17T04:47:58;99619.56;;;24.37;71.74
62402;BME280;48440;51.224;22.506;2023-08-17T04:50:24;99625.56;;;24.39;71.63
62402;BME280;48440;51.224;22.506;2023-08-17T04:52:49;99622.00;;;24.39;71.66
62402;BME280;48440;51.224;22.506;2023-08-17T04:55:15;99634.22;;;24.38;71.92
62402;BME280;48440;51.224;22.506;2023-08-17T04:57:40;99619.69;;;24.41;71.58
62402;BME280;48440;51.224;22.506;2023-08-17T05:00:06;99630.06;;;24.44;71.11
62402;BME280;48440;51.224;22.506;2023-08-17T05:02:35;99633.31;;;24.46;71.55
62402;BME280;48440;51.224;22.506;2023-08-17T05:05:05;99637.72;;;24.47;71.70
62402;BME280;48440;51.224;22.506;2023-08-17T05:07:32;99629.25;;;24.43;72.17
62402;BME280;48440;51.224;22.506;2023-08-17T05:09:57;99631.38;;;24.46;72.26
62402;BME280;48440;51.224;22.506;2023-08-17T05:12:23;99629.41;;;24.47;72.37
62402;BME280;48440;51.224;22.506;2023-08-17T05:14:48;99630.69;;;24.49;72.90
62402;BME280;48440;51.224;22.506;2023-08-17T05:17:14;99635.09;;;24.50;72.67
62402;BME280;48440;51.224;22.506;2023-08-17T05:19:39;99631.31;;;24.55;72.47
62402;BME280;48440;51.224;22.506;2023-08-17T05:22:12;99630.63;;;24.58;71.98
62402;BME280;48440;51.224;22.506;2023-08-17T05:24:38;99630.75;;;24.61;72.01
62402;BME280;48440;51.224;22.506;2023-08-17T05:27:04;99630.91;;;24.65;71.72
62402;BME280;48440;51.224;22.506;2023-08-17T05:29:30;99626.25;;;24.69;72.05
62402;BME280;48440;51.224;22.506;2023-08-17T05:31:57;99631.13;;;24.72;72.88
62402;BME280;48440;51.224;22.506;2023-08-17T05:34:23;99636.00;;;24.75;72.63
62402;BME280;48440;51.224;22.506;2023-08-17T05:36:48;99639.59;;;24.76;72.77
62402;BME280;48440;51.224;22.506;2023-08-17T05:39:14;99637.28;;;24.78;71.38
62402;BME280;48440;51.224;22.506;2023-08-17T05:41:39;99641.34;;;24.80;71.08
62402;BME280;48440;51.224;22.506;2023-08-17T05:44:04;99641.00;;;24.82;72.00
62402;BME280;48440;51.224;22.506;2023-08-17T05:46:35;99638.84;;;24.87;72.43
62402;BME280;48440;51.224;22.506;2023-08-17T05:49:01;99632.63;;;24.90;72.33
62402;BME280;48440;51.224;22.506;2023-08-17T05:51:26;99648.13;;;24.91;72.07
62402;BME280;48440;51.224;22.506;2023-08-17T05:53:52;99641.28;;;24.89;71.17
62402;BME280;48440;51.224;22.506;2023-08-17T05:56:17;99650.75;;;24.88;70.41
62402;BME280;48440;51.224;22.506;2023-08-17T05:58:42;99649.59;;;24.89;70.86
62402;BME280;48440;51.224;22.506;2023-08-17T06:01:09;99638.97;;;24.91;69.75
62402;BME280;48440;51.224;22.506;2023-08-17T06:03:36;99638.50;;;24.89;69.24
62402;BME280;48440;51.224;22.506;2023-08-17T06:06:03;99644.06;;;24.89;68.75
62402;BME280;48440;51.224;22.506;2023-08-17T06:08:28;99638.28;;;24.94;68.45
62402;BME280;48440;51.224;22.506;2023-08-17T06:10:54;99644.09;;;25.01;68.76
62402;BME280;48440;51.224;22.506;2023-08-17T06:13:20;99650.25;;;25.07;68.97
62402;BME280;48440;51.224;22.506;2023-08-17T06:15:45;99642.75;;;25.07;68.67
62402;BME280;48440;51.224;22.506;2023-08-17T06:18:11;99651.41;;;25.06;68.34
62402;BME280;48440;51.224;22.506;2023-08-17T06:20:36;99647.50;;;25.07;68.34
62402;BME280;48440;51.224;22.506;2023-08-17T06:23:02;99647.16;;;25.08;68.37
62402;BME280;48440;51.224;22.506;2023-08-17T06:25:30;99643.81;;;25.15;68.89
62402;BME280;48440;51.224;22.506;2023-08-17T06:27:56;99648.34;;;25.19;69.18
62402;BME280;48440;51.224;22.506;2023-08-17T06:30:22;99650.31;;;25.19;68.35
62402;BME280;48440;51.224;22.506;2023-08-17T06:32:47;99659.06;;;25.21;67.06
62402;BME280;48440;51.224;22.506;2023-08-17T06:35:12;99665.00;;;25.19;68.08
62402;BME280;48440;51.224;22.506;2023-08-17T06:37:38;99664.63;;;25.21;68.39
62402;BME280;48440;51.224;22.506;2023-08-17T06:40:05;99663.47;;;25.22;68.94
62402;BME280;48440;51.224;22.506;2023-08-17T06:42:31;99662.31;;;25.23;68.81
62402;BME280;48440;51.224;22.506;2023-08-17T06:44:56;99660.84;;;25.25;69.27
62402;BME280;48440;51.224;22.506;2023-08-17T06:47:22;99647.53;;;25.31;69.31
62402;BME280;48440;51.224;22.506;2023-08-17T06:49:48;99650.78;;;25.33;67.72
62402;BME280;48440;51.224;22.506;2023-08-17T06:52:13;99655.78;;;25.40;67.50
62402;BME280;48440;51.224;22.506;2023-08-17T06:54:38;99652.44;;;25.46;67.82
62402;BME280;48440;51.224;22.506;2023-08-17T06:57:05;99660.19;;;25.53;68.10
62402;BME280;48440;51.224;22.506;2023-08-17T06:59:30;99661.41;;;25.64;68.06
62402;BME280;48440;51.224;22.506;2023-08-17T07:01:56;99660.56;;;25.76;68.93
62402;BME280;48440;51.224;22.506;2023-08-17T07:04:22;99655.38;;;25.86;66.43
62402;BME280;48440;51.224;22.506;2023-08-17T07:06:48;99664.50;;;25.99;65.92
62402;BME280;48440;51.224;22.506;2023-08-17T07:09:14;99658.59;;;26.13;64.97
62402;BME280;48440;51.224;22.506;2023-08-17T07:11:40;99657.19;;;26.31;64.36
62402;BME280;48440;51.224;22.506;2023-08-17T07:14:06;99657.50;;;26.54;64.93
62402;BME280;48440;51.224;22.506;2023-08-17T07:16:32;99660.59;;;26.92;63.19
62402;BME280;48440;51.224;22.506;2023-08-17T07:18:57;99655.34;;;27.47;61.01
62402;BME280;48440;51.224;22.506;2023-08-17T07:21:23;99660.19;;;27.81;59.07
62402;BME280;48440;51.224;22.506;2023-08-17T07:23:49;99664.50;;;27.94;58.46
62402;BME280;48440;51.224;22.506;2023-08-17T07:26:16;99652.81;;;28.04;59.96
62402;BME280;48440;51.224;22.506;2023-08-17T07:28:43;99650.38;;;28.03;57.90
62402;BME280;48440;51.224;22.506;2023-08-17T07:31:09;99653.75;;;28.12;57.70
62402;BME280;48440;51.224;22.506;2023-08-17T07:33:34;99646.84;;;28.22;56.41
62402;BME280;48440;51.224;22.506;2023-08-17T07:36:00;99649.53;;;28.53;55.77
62402;BME280;48440;51.224;22.506;2023-08-17T07:38:25;99642.44;;;28.94;55.51
62402;BME280;48440;51.224;22.506;2023-08-17T07:40:51;99652.56;;;29.45;53.74
62402;BME280;48440;51.224;22.506;2023-08-17T07:43:16;99657.44;;;29.97;52.00
62402;BME280;48440;51.224;22.506;2023-08-17T07:45:42;99650.97;;;30.46;51.48
62402;BME280;48440;51.224;22.506;2023-08-17T07:48:07;99645.03;;;30.81;50.44
62402;BME280;48440;51.224;22.506;2023-08-17T07:50:33;99650.66;;;30.81;48.81
62402;BME280;48440;51.224;22.506;2023-08-17T07:52:58;99653.44;;;30.81;48.29
62402;BME280;48440;51.224;22.506;2023-08-17T07:55:26;99652.25;;;30.82;47.99
62402;BME280;48440;51.224;22.506;2023-08-17T07:57:51;99647.19;;;30.94;49.32
62402;BME280;48440;51.224;22.506;2023-08-17T08:00:17;99649.06;;;31.13;48.07
62402;BME280;48440;51.224;22.506;2023-08-17T08:02:42;99645.16;;;31.25;46.68
62402;BME280;48440;51.224;22.506;2023-08-17T08:05:08;99655.47;;;31.14;46.25
62402;BME280;48440;51.224;22.506;2023-08-17T08:07:33;99651.13;;;30.86;44.71
62402;BME280;48440;51.224;22.506;2023-08-17T08:09:59;99656.38;;;30.91;44.79
62402;BME280;48440;51.224;22.506;2023-08-17T08:12:24;99654.44;;;30.99;43.67
62402;BME280;48440;51.224;22.506;2023-08-17T08:14:50;99653.81;;;30.79;44.21
62402;BME280;48440;51.224;22.506;2023-08-17T08:17:16;99657.56;;;30.57;44.99
62402;BME280;48440;51.224;22.506;2023-08-17T08:19:41;99653.31;;;30.40;45.26
62402;BME280;48440;51.224;22.506;2023-08-17T08:22:07;99655.06;;;30.52;45.64
62402;BME280;48440;51.224;22.506;2023-08-17T08:24:32;99654.50;;;30.39;45.85
62402;BME280;48440;51.224;22.506;2023-08-17T08:27:00;99660.19;;;30.20;46.60
62402;BME280;48440;51.224;22.506;2023-08-17T08:29:26;99659.25;;;30.09;47.07
62402;BME280;48440;51.224;22.506;2023-08-17T08:31:52;99654.03;;;29.84;47.08
62402;BME280;48440;51.224;22.506;2023-08-17T08:34:18;99662.69;;;29.76;46.85
62402;BME280;48440;51.224;22.506;2023-08-17T08:36:43;99658.56;;;29.69;47.79
62402;BME280;48440;51.224;22.506;2023-08-17T08:39:09;99654.59;;;29.70;47.53
62402;BME280;48440;51.224;22.506;2023-08-17T08:41:36;99652.81;;;29.82;46.69
62402;BME280;48440;51.224;22.506;2023-08-17T08:44:03;99658.47;;;29.89;45.45
62402;BME280;48440;51.224;22.506;2023-08-17T08:46:30;99648.59;;;29.95;45.44
62402;BME280;48440;51.224;22.506;2023-08-17T08:48:58;99642.72;;;30.00;45.98
62402;BME280;48440;51.224;22.506;2023-08-17T08:51:27;99646.13;;;30.13;46.36
62402;BME280;48440;51.224;22.506;2023-08-17T08:54:02;99645.88;;;30.25;46.22
62402;BME280;48440;51.224;22.506;2023-08-17T08:56:35;99641.31;;;30.40;45.48
62402;BME280;48440;51.224;22.506;2023-08-17T08:59:04;99639.34;;;30.44;44.30
62402;BME280;48440;51.224;22.506;2023-08-17T09:01:33;99640.91;;;30.41;44.54
62402;BME280;48440;51.224;22.506;2023-08-17T09:03:59;99636.78;;;30.31;43.78
62402;BME280;48440;51.224;22.506;2023-08-17T09:06:26;99638.88;;;30.38;44.02
62402;BME280;48440;51.224;22.506;2023-08-17T09:08:52;99636.22;;;30.49;43.45
62402;BME280;48440;51.224;22.506;2023-08-17T09:11:18;99637.44;;;30.51;44.10
62402;BME280;48440;51.224;22.506;2023-08-17T09:13:44;99639.66;;;30.65;43.65
62402;BME280;48440;51.224;22.506;2023-08-17T09:16:09;99630.38;;;30.91;43.01
62402;BME280;48440;51.224;22.506;2023-08-17T09:18:35;99632.97;;;31.10;42.95
62402;BME280;48440;51.224;22.506;2023-08-17T09:21:01;99632.38;;;31.27;42.13
62402;BME280;48440;51.224;22.506;2023-08-17T09:23:27;99636.44;;;31.33;42.29
62402;BME280;48440;51.224;22.506;2023-08-17T09:25:52;99630.06;;;31.36;42.39
62402;BME280;48440;51.224;22.506;2023-08-17T09:28:23;99626.88;;;31.38;43.01
62402;BME280;48440;51.224;22.506;2023-08-17T09:30:53;99630.31;;;31.65;42.88
62402;BME280;48440;51.224;22.506;2023-08-17T09:33:24;99627.09;;;32.14;42.76
62402;BME280;48440;51.224;22.506;2023-08-17T09:35:50;99623.28;;;32.44;41.09
62402;BME280;48440;51.224;22.506;2023-08-17T09:38:17;99621.75;;;32.67;40.02
62402;BME280;48440;51.224;22.506;2023-08-17T09:40:42;99619.78;;;32.75;39.15
62402;BME280;48440;51.224;22.506;2023-08-17T09:43:09;99617.78;;;32.72;38.14
62402;BME280;48440;51.224;22.506;2023-08-17T09:45:37;99625.47;;;32.86;38.51
62402;BME280;48440;51.224;22.506;2023-08-17T09:48:03;99613.41;;;32.85;38.81
62402;BME280;48440;51.224;22.506;2023-08-17T09:50:29;99613.34;;;32.67;39.42
62402;BME280;48440;51.224;22.506;2023-08-17T09:52:54;99615.69;;;32.58;38.36
62402;BME280;48440;51.224;22.506;2023-08-17T09:55:22;99613.25;;;32.46;38.04
62402;BME280;48440;51.224;22.506;2023-08-17T09:57:51;99608.00;;;32.41;38.80
62402;BME280;48440;51.224;22.506;2023-08-17T10:00:19;99603.63;;;32.51;39.77
62402;BME280;48440;51.224;22.506;2023-08-17T10:02:45;99606.88;;;32.60;39.23
62402;BME280;48440;51.224;22.506;2023-08-17T10:05:18;99600.91;;;32.68;39.38
62402;BME280;48440;51.224;22.506;2023-08-17T10:07:47;99598.91;;;32.72;38.80
62402;BME280;48440;51.224;22.506;2023-08-17T10:10:22;99602.13;;;32.71;38.82
62402;BME280;48440;51.224;22.506;2023-08-17T10:13:15;99597.69;;;32.70;38.64
62402;BME280;48440;51.224;22.506;2023-08-17T10:16:02;99600.91;;;32.68;38.89
62402;BME280;48440;51.224;22.506;2023-08-17T10:19:13;99600.50;;;32.66;38.81
62402;BME280;48440;51.224;22.506;2023-08-17T10:21:35;99607.28;;;32.62;38.79
62402;BME280;48440;51.224;22.506;2023-08-17T10:24:02;99598.06;;;32.61;38.18
62402;BME280;48440;51.224;22.506;2023-08-17T10:26:29;99596.44;;;32.60;39.04
62402;BME280;48440;51.224;22.506;2023-08-17T10:28:55;99587.19;;;32.53;38.03
62402;BME280;48440;51.224;22.506;2023-08-17T10:31:24;99591.94;;;32.34;38.11
62402;BME280;48440;51.224;22.506;2023-08-17T10:33:50;99594.59;;;32.13;36.20
62402;BME280;48440;51.224;22.506;2023-08-17T10:36:17;99602.47;;;31.90;36.74
62402;BME280;48440;51.224;22.506;2023-08-17T10:38:43;99599.09;;;31.66;37.72
62402;BME280;48440;51.224;22.506;2023-08-17T10:41:09;99597.66;;;31.39;37.53
62402;BME280;48440;51.224;22.506;2023-08-17T10:44:01;99599.03;;;31.15;37.53
62402;BME280;48440;51.224;22.506;2023-08-17T10:46:37;99596.03;;;31.01;38.12
62402;BME280;48440;51.224;22.506;2023-08-17T10:49:05;99595.91;;;30.87;38.79
62402;BME280;48440;51.224;22.506;2023-08-17T10:51:31;99594.59;;;30.77;40.36
62402;BME280;48440;51.224;22.506;2023-08-17T10:53:59;99598.53;;;30.73;41.23
62402;BME280;48440;51.224;22.506;2023-08-17T10:56:29;99598.47;;;30.65;41.66
62402;BME280;48440;51.224;22.506;2023-08-17T10:58:59;99598.38;;;30.58;42.39
62402;BME280;48440;51.224;22.506;2023-08-17T11:01:36;99601.22;;;30.62;41.85
62402;BME280;48440;51.224;22.506;2023-08-17T11:04:10;99594.06;;;30.64;42.85
62402;BME280;48440;51.224;22.506;2023-08-17T11:06:36;99592.88;;;30.65;41.68
62402;BME280;48440;51.224;22.506;2023-08-17T11:09:06;99592.88;;;30.69;42.01
62402;BME280;48440;51.224;22.506;2023-08-17T11:11:32;99591.50;;;30.86;42.27
62402;BME280;48440;51.224;22.506;2023-08-17T11:13:57;99590.09;;;31.06;42.21
62402;BME280;48440;51.224;22.506;2023-08-17T11:16:23;99586.22;;;31.14;42.52
62402;BME280;48440;51.224;22.506;2023-08-17T11:18:48;99584.25;;;31.18;41.65
62402;BME280;48440;51.224;22.506;2023-08-17T11:21:15;99588.13;;;31.10;41.53
62402;BME280;48440;51.224;22.506;2023-08-17T11:23:41;99590.47;;;31.04;41.05
62402;BME280;48440;51.224;22.506;2023-08-17T11:26:07;99587.63;;;31.01;42.21
62402;BME280;48440;51.224;22.506;2023-08-17T11:28:33;99591.97;;;30.91;40.89
62402;BME280;48440;51.224;22.506;2023-08-17T11:31:07;99588.69;;;30.86;41.31
62402;BME280;48440;51.224;22.506;2023-08-17T11:33:34;99586.69;;;30.86;40.95
62402;BME280;48440;51.224;22.506;2023-08-17T11:36:05;99577.91;;;30.88;40.62
62402;BME280;48440;51.224;22.506;2023-08-17T11:38:38;99580.28;;;30.86;40.56
62402;BME280;48440;51.224;22.506;2023-08-17T11:41:05;99577.78;;;30.77;40.83
62402;BME280;48440;51.224;22.506;2023-08-17T11:43:34;99577.31;;;30.71;41.50
62402;BME280;48440;51.224;22.506;2023-08-17T11:46:01;99571.34;;;30.73;42.89
62402;BME280;48440;51.224;22.506;2023-08-17T11:48:27;99571.75;;;30.75;43.37
62402;BME280;48440;51.224;22.506;2023-08-17T11:50:53;99569.44;;;30.81;42.57
62402;BME280;48440;51.224;22.506;2023-08-17T11:53:19;99569.94;;;30.90;42.11
62402;BME280;48440;51.224;22.506;2023-08-17T11:55:44;99569.69;;;31.05;42.04
62402;BME280;48440;51.224;22.506;2023-08-17T11:58:10;99567.41;;;31.15;41.94
62402;BME280;48440;51.224;22.506;2023-08-17T12:00:36;99567.41;;;31.15;41.32
62402;BME280;48440;51.224;22.506;2023-08-17T12:03:04;99575.44;;;31.16;39.51
62402;BME280;48440;51.224;22.506;2023-08-17T12:05:31;99567.81;;;31.17;39.47
62402;BME280;48440;51.224;22.506;2023-08-17T12:07:58;99564.63;;;31.18;39.35
62402;BME280;48440;51.224;22.506;2023-08-17T12:10:27;99562.69;;;31.26;39.27
62402;BME280;48440;51.224;22.506;2023-08-17T12:12:53;99561.88;;;31.25;39.24
62402;BME280;48440;51.224;22.506;2023-08-17T12:15:18;99557.91;;;31.30;38.88
62402;BME280;48440;51.224;22.506;2023-08-17T12:17:46;99558.72;;;31.30;38.50
62402;BME280;48440;51.224;22.506;2023-08-17T12:20:16;99562.28;;;31.27;38.58
62402;BME280;48440;51.224;22.506;2023-08-17T12:22:43;99558.25;;;31.25;37.83
62402;BME280;48440;51.224;22.506;2023-08-17T12:25:09;99557.03;;;31.22;38.66
62402;BME280;48440;51.224;22.506;2023-08-17T12:27:35;99560.66;;;31.23;39.19
62402;BME280;48440;51.224;22.506;2023-08-17T12:30:01;99549.88;;;31.28;39.62
62402;BME280;48440;51.224;22.506;2023-08-17T12:32:26;99555.13;;;31.30;40.50
62402;BME280;48440;51.224;22.506;2023-08-17T12:34:52;99546.31;;;31.31;39.95
62402;BME280;48440;51.224;22.506;2023-08-17T12:37:21;99544.75;;;31.34;39.28
62402;BME280;48440;51.224;22.506;2023-08-17T12:39:47;99542.31;;;31.32;40.24
62402;BME280;48440;51.224;22.506;2023-08-17T12:42:13;99537.50;;;31.29;39.76
62402;BME280;48440;51.224;22.506;2023-08-17T12:44:39;99533.84;;;31.25;39.94
62402;BME280;48440;51.224;22.506;2023-08-17T12:47:07;99533.84;;;31.25;39.92